NCAR-RAP Real-Time Weather Data

Output produced by METARs form (20 January 2018  03:25 UTC)
found at http://weather.rap.ucar.edu/surface/
 
Conditions at: KCTY observed 20 January 2018  03:15 UTC
Temperature: -0.5°C (31°F)
Dewpoint: -2.5°C (28°F) [RH = 86%]
Pressure (altimeter): 30.35 inches Hg (1027.9 mb)
Winds: calm
Visibility: 10 or more miles (16+ km)
Ceiling: at least 12,000 feet AGL
Clouds: sky clear below 12,000 feet AGL
Present Weather: automated observation with no human augmentation;
there may or may not be significant weather present at this time
KCTY 200315Z AUTO 00000KT 10SM CLR 00/M02 A3035 RMK AO2 T10051025

Conditions at: KCTY observed 20 January 2018  02:55 UTC
Temperature: 1.3°C (34°F)
Dewpoint: -1.3°C (30°F) [RH = 83%]
Pressure (altimeter): 30.34 inches Hg (1027.5 mb)
Winds: calm
Visibility: 10 or more miles (16+ km)
Ceiling: at least 12,000 feet AGL
Clouds: sky clear below 12,000 feet AGL
Present Weather: automated observation with no human augmentation;
there may or may not be significant weather present at this time
KCTY 200255Z AUTO 00000KT 10SM CLR 01/M01 A3034 RMK AO2 T00131013

Conditions at: KCTY observed 20 January 2018  02:35 UTC
Temperature: 1.5°C (35°F)
Dewpoint: -1.5°C (29°F) [RH = 80%]
Pressure (altimeter): 30.35 inches Hg (1027.9 mb)
Winds: calm
Visibility: 10 or more miles (16+ km)
Ceiling: at least 12,000 feet AGL
Clouds: sky clear below 12,000 feet AGL
Present Weather: automated observation with no human augmentation;
there may or may not be significant weather present at this time
KCTY 200235Z AUTO 00000KT 10SM CLR 02/M02 A3035 RMK AO2 T00151015

Conditions at: KCTY observed 20 January 2018  02:15 UTC
Temperature: 1.9°C (35°F)
Dewpoint: -1.8°C (29°F) [RH = 76%]
Pressure (altimeter): 30.35 inches Hg (1027.9 mb)
Winds: calm
Visibility: 10 or more miles (16+ km)
Ceiling: at least 12,000 feet AGL
Clouds: sky clear below 12,000 feet AGL
Present Weather: automated observation with no human augmentation;
there may or may not be significant weather present at this time
KCTY 200215Z AUTO 00000KT 10SM CLR 02/M02 A3035 RMK AO2 T00191018

Conditions at: KCTY observed 20 January 2018  01:55 UTC
Temperature: 2.1°C (36°F)
Dewpoint: -1.9°C (29°F) [RH = 75%]
Pressure (altimeter): 30.35 inches Hg (1027.9 mb)
Winds: calm
Visibility: 10 or more miles (16+ km)
Ceiling: at least 12,000 feet AGL
Clouds: sky clear below 12,000 feet AGL
Present Weather: automated observation with no human augmentation;
there may or may not be significant weather present at this time
KCTY 200155Z AUTO 00000KT 10SM CLR 02/M02 A3035 RMK AO2 T00211019

Conditions at: KCTY observed 20 January 2018  01:35 UTC
Temperature: 3.1°C (38°F)
Dewpoint: -1.5°C (29°F) [RH = 72%]
Pressure (altimeter): 30.35 inches Hg (1027.9 mb)
Winds: calm
Visibility: 10 or more miles (16+ km)
Ceiling: at least 12,000 feet AGL
Clouds: sky clear below 12,000 feet AGL
Present Weather: automated observation with no human augmentation;
there may or may not be significant weather present at this time
KCTY 200135Z AUTO 00000KT 10SM CLR 03/M02 A3035 RMK AO2 T00311015

Conditions at: KCTY observed 20 January 2018  01:15 UTC
Temperature: 3.8°C (39°F)
Dewpoint: -1.5°C (29°F) [RH = 68%]
Pressure (altimeter): 30.34 inches Hg (1027.5 mb)
Winds: calm
Visibility: 10 or more miles (16+ km)
Ceiling: at least 12,000 feet AGL
Clouds: sky clear below 12,000 feet AGL
Present Weather: automated observation with no human augmentation;
there may or may not be significant weather present at this time
KCTY 200115Z AUTO 00000KT 10SM CLR 04/M01 A3034 RMK AO2 T00381015

Conditions at: KCTY observed 20 January 2018  00:55 UTC
Temperature: 4.4°C (40°F)
Dewpoint: -1.6°C (29°F) [RH = 65%]
Pressure (altimeter): 30.34 inches Hg (1027.5 mb)
Winds: calm
Visibility: 10 or more miles (16+ km)
Ceiling: at least 12,000 feet AGL
Clouds: sky clear below 12,000 feet AGL
Present Weather: automated observation with no human augmentation;
there may or may not be significant weather present at this time
KCTY 200055Z AUTO 00000KT 10SM CLR 04/M02 A3034 RMK AO2 T00441016

Conditions at: KCTY observed 20 January 2018  00:35 UTC
Temperature: 6.0°C (43°F)
Dewpoint: -2.2°C (28°F) [RH = 56%]
Pressure (altimeter): 30.33 inches Hg (1027.2 mb)
Winds: calm
Visibility: 10 or more miles (16+ km)
Ceiling: at least 12,000 feet AGL
Clouds: sky clear below 12,000 feet AGL
Present Weather: automated observation with no human augmentation;
there may or may not be significant weather present at this time
KCTY 200035Z AUTO 00000KT 10SM CLR 06/M02 A3033 RMK AO2 T00601022

Conditions at: KCTY observed 20 January 2018  00:15 UTC
Temperature: 7.4°C (45°F)
Dewpoint: -1.9°C (29°F) [RH = 52%]
Pressure (altimeter): 30.33 inches Hg (1027.2 mb)
Winds: from the WSW (250 degrees) at 3 MPH (3 knots; 1.6 m/s)
Visibility: 10 or more miles (16+ km)
Ceiling: at least 12,000 feet AGL
Clouds: sky clear below 12,000 feet AGL
Present Weather: automated observation with no human augmentation;
there may or may not be significant weather present at this time
KCTY 200015Z AUTO 25003KT 10SM CLR 07/M02 A3033 RMK AO2 T00741019

Conditions at: KCTY observed 19 January 2018  23:55 UTC
Temperature: 8.1°C (47°F)
Dewpoint: -1.8°C (29°F) [RH = 50%]
Pressure (altimeter): 30.32 inches Hg (1026.8 mb)
Winds: from the W (270 degrees) at 6 MPH (5 knots; 2.6 m/s)
Visibility: 10 or more miles (16+ km)
Ceiling: at least 12,000 feet AGL
Clouds: sky clear below 12,000 feet AGL
Present Weather: automated observation with no human augmentation;
there may or may not be significant weather present at this time
KCTY 192355Z AUTO 27005KT 10SM CLR 08/M02 A3032 RMK AO2 T00811018 10161 20078 401611067

Conditions at: KCTY observed 19 January 2018  23:35 UTC
Temperature: 8.9°C (48°F)
Dewpoint: -1.8°C (29°F) [RH = 47%]
Pressure (altimeter): 30.31 inches Hg (1026.5 mb)
Winds: from the W (280 degrees) at 6 MPH (5 knots; 2.6 m/s)
Visibility: 10 or more miles (16+ km)
Ceiling: at least 12,000 feet AGL
Clouds: sky clear below 12,000 feet AGL
Present Weather: automated observation with no human augmentation;
there may or may not be significant weather present at this time
KCTY 192335Z AUTO 28005KT 10SM CLR 09/M02 A3031 RMK AO2 T00891018

Conditions at: KCTY observed 19 January 2018  23:15 UTC
Temperature: 10.1°C (50°F)
Dewpoint: -1.5°C (29°F) [RH = 44%]
Pressure (altimeter): 30.31 inches Hg (1026.5 mb)
Winds: from the WSW (240 degrees) at 5 MPH (4 knots; 2.1 m/s)
Visibility: 10 or more miles (16+ km)
Ceiling: at least 12,000 feet AGL
Clouds: sky clear below 12,000 feet AGL
Present Weather: automated observation with no human augmentation;
there may or may not be significant weather present at this time
KCTY 192315Z AUTO 24004KT 10SM CLR 10/M02 A3031 RMK AO2 T01011015

Conditions at: KCTY observed 19 January 2018  22:55 UTC
Temperature: 11.9°C (53°F)
Dewpoint: -2.0°C (28°F) [RH = 38%]
Pressure (altimeter): 30.31 inches Hg (1026.5 mb)
Winds: from the WSW (240 degrees) at 7 MPH (6 knots; 3.1 m/s)
Visibility: 10 or more miles (16+ km)
Ceiling: at least 12,000 feet AGL
Clouds: sky clear below 12,000 feet AGL
Present Weather: automated observation with no human augmentation;
there may or may not be significant weather present at this time
KCTY 192255Z AUTO 24006KT 10SM CLR 12/M02 A3031 RMK AO2 T01191020

Conditions at: KCTY observed 19 January 2018  22:35 UTC
Temperature: 14.3°C (58°F)
Dewpoint: -4.4°C (24°F) [RH = 27%]
Pressure (altimeter): 30.31 inches Hg (1026.5 mb)
Winds: calm
Visibility: 10 or more miles (16+ km)
Ceiling: at least 12,000 feet AGL
Clouds: sky clear below 12,000 feet AGL
Present Weather: automated observation with no human augmentation;
there may or may not be significant weather present at this time
KCTY 192235Z AUTO 00000KT 10SM CLR 14/M04 A3031 RMK AO2 T01431044

Conditions at: KCTY observed 19 January 2018  22:15 UTC
Temperature: 15.0°C (59°F)
Dewpoint: -6.6°C (20°F) [RH = 22%]
Pressure (altimeter): 30.30 inches Hg (1026.2 mb)
Winds: calm
Visibility: 10 or more miles (16+ km)
Ceiling: at least 12,000 feet AGL
Clouds: sky clear below 12,000 feet AGL
Present Weather: automated observation with no human augmentation;
there may or may not be significant weather present at this time
KCTY 192215Z AUTO 00000KT 10SM CLR 15/M07 A3030 RMK AO2 T01501066

Conditions at: KCTY observed 19 January 2018  21:55 UTC
Temperature: 15.1°C (59°F)
Dewpoint: -7.1°C (19°F) [RH = 21%]
Pressure (altimeter): 30.30 inches Hg (1026.2 mb)
Winds: calm
Visibility: 10 or more miles (16+ km)
Ceiling: at least 12,000 feet AGL
Clouds: sky clear below 12,000 feet AGL
Present Weather: automated observation with no human augmentation;
there may or may not be significant weather present at this time
KCTY 192155Z AUTO 00000KT 10SM CLR 15/M07 A3030 RMK AO2 T01511071

Conditions at: KCTY observed 19 January 2018  21:35 UTC
Temperature: 15.6°C (60°F)
Dewpoint: -6.5°C (20°F) [RH = 21%]
Pressure (altimeter): 30.30 inches Hg (1026.2 mb)
Winds: from the ENE (60 degrees) at 3 MPH (3 knots; 1.6 m/s)
Visibility: 10 or more miles (16+ km)
Ceiling: at least 12,000 feet AGL
Clouds: sky clear below 12,000 feet AGL
Present Weather: automated observation with no human augmentation;
there may or may not be significant weather present at this time
KCTY 192135Z AUTO 06003KT 10SM CLR 16/M06 A3030 RMK AO2 T01561065

Conditions at: KCTY observed 19 January 2018  21:15 UTC
Temperature: 15.7°C (60°F)
Dewpoint: -6.6°C (20°F) [RH = 21%]
Pressure (altimeter): 30.30 inches Hg (1026.2 mb)
Winds: from the E (80 degrees) at 5 MPH (4 knots; 2.1 m/s)
Visibility: 10 or more miles (16+ km)
Ceiling: at least 12,000 feet AGL
Clouds: sky clear below 12,000 feet AGL
Present Weather: automated observation with no human augmentation;
there may or may not be significant weather present at this time
KCTY 192115Z AUTO 08004KT 10SM CLR 16/M07 A3030 RMK AO2 T01571066

Conditions at: KCTY observed 19 January 2018  20:55 UTC
Temperature: 15.7°C (60°F)
Dewpoint: -7.2°C (19°F) [RH = 20%]
Pressure (altimeter): 30.30 inches Hg (1026.2 mb)
Winds: from the N (10 degrees) at 5 MPH (4 knots; 2.1 m/s)
Visibility: 10 or more miles (16+ km)
Ceiling: at least 12,000 feet AGL
Clouds: sky clear below 12,000 feet AGL
Present Weather: automated observation with no human augmentation;
there may or may not be significant weather present at this time
KCTY 192055Z AUTO 01004KT 10SM CLR 16/M07 A3030 RMK AO2 T01571072

Conditions at: KCTY observed 19 January 2018  20:35 UTC
Temperature: 15.7°C (60°F)
Dewpoint: -7.4°C (19°F) [RH = 20%]
Pressure (altimeter): 30.30 inches Hg (1026.2 mb)
Winds: from the NNW (340 degrees) at 3 MPH (3 knots; 1.6 m/s)
Visibility: 10 or more miles (16+ km)
Ceiling: at least 12,000 feet AGL
Clouds: sky clear below 12,000 feet AGL
Present Weather: automated observation with no human augmentation;
there may or may not be significant weather present at this time
KCTY 192035Z AUTO 34003KT 10SM CLR 16/M07 A3030 RMK AO2 T01571074

Conditions at: KCTY observed 19 January 2018  20:15 UTC
Temperature: 15.2°C (59°F)
Dewpoint: -7.3°C (19°F) [RH = 20%]
Pressure (altimeter): 30.31 inches Hg (1026.5 mb)
Winds: from the SW (220 degrees) at 3 MPH (3 knots; 1.6 m/s)
Visibility: 10 or more miles (16+ km)
Ceiling: at least 12,000 feet AGL
Clouds: sky clear below 12,000 feet AGL
Present Weather: automated observation with no human augmentation;
there may or may not be significant weather present at this time
KCTY 192015Z AUTO 22003KT 10SM CLR 15/M07 A3031 RMK AO2 T01521073

Conditions at: KCTY observed 19 January 2018  19:55 UTC
Temperature: 15.7°C (60°F)
Dewpoint: -7.3°C (19°F) [RH = 20%]
Pressure (altimeter): 30.31 inches Hg (1026.5 mb)
Winds: from the N (360 degrees) at 6 MPH (5 knots; 2.6 m/s)
Visibility: 10 or more miles (16+ km)
Ceiling: at least 12,000 feet AGL
Clouds: sky clear below 12,000 feet AGL
Present Weather: automated observation with no human augmentation;
there may or may not be significant weather present at this time
KCTY 191955Z AUTO 36005KT 10SM CLR 16/M07 A3031 RMK AO2 T01571073

Conditions at: KCTY observed 19 January 2018  19:35 UTC
Temperature: 15.6°C (60°F)
Dewpoint: -7.5°C (18°F) [RH = 20%]
Pressure (altimeter): 30.32 inches Hg (1026.8 mb)
Winds: from the NNE (20 degrees) at 8 MPH (7 knots; 3.6 m/s)
Visibility: 10 or more miles (16+ km)
Ceiling: at least 12,000 feet AGL
Clouds: sky clear below 12,000 feet AGL
Present Weather: automated observation with no human augmentation;
there may or may not be significant weather present at this time
KCTY 191935Z AUTO 02007KT 10SM CLR 16/M07 A3032 RMK AO2 T01561075

Conditions at: KCTY observed 19 January 2018  19:15 UTC
Temperature: 15.2°C (59°F)
Dewpoint: -8.4°C (17°F) [RH = 19%]
Pressure (altimeter): 30.33 inches Hg (1027.2 mb)
Winds: from the N (10 degrees) at 8 MPH (7 knots; 3.6 m/s)
Visibility: 10 or more miles (16+ km)
Ceiling: at least 12,000 feet AGL
Clouds: sky clear below 12,000 feet AGL
Present Weather: automated observation with no human augmentation;
there may or may not be significant weather present at this time
KCTY 191915Z AUTO 01007KT 10SM CLR 15/M08 A3033 RMK AO2 T01521084

Conditions at: KCTY observed 19 January 2018  18:55 UTC
Temperature: 14.4°C (58°F)
Dewpoint: -8.8°C (16°F) [RH = 19%]
Pressure (altimeter): 30.34 inches Hg (1027.5 mb)
Winds: from the WSW (250 degrees) at 3 MPH (3 knots; 1.6 m/s)
Visibility: 10 or more miles (16+ km)
Ceiling: at least 12,000 feet AGL
Clouds: sky clear below 12,000 feet AGL
Present Weather: automated observation with no human augmentation;
there may or may not be significant weather present at this time
KCTY 191855Z AUTO 25003KT 10SM CLR 14/M09 A3034 RMK AO2 T01441088

Conditions at: KCTY observed 19 January 2018  18:35 UTC
Temperature: 14.1°C (57°F)
Dewpoint: -9.3°C (15°F) [RH = 19%]
Pressure (altimeter): 30.35 inches Hg (1027.9 mb)
Winds: from the NNW (330 degrees) at 5 MPH (4 knots; 2.1 m/s)
Visibility: 10 or more miles (16+ km)
Ceiling: at least 12,000 feet AGL
Clouds: sky clear below 12,000 feet AGL
Present Weather: automated observation with no human augmentation;
there may or may not be significant weather present at this time
KCTY 191835Z AUTO 33004KT 10SM CLR 14/M09 A3035 RMK AO2 T01411093

Conditions at: KCTY observed 19 January 2018  18:15 UTC
Temperature: 14.3°C (58°F)
Dewpoint: -9.2°C (15°F) [RH = 19%]
Pressure (altimeter): 30.36 inches Hg (1028.2 mb)
Winds: from the WNW (290 degrees) at 8 MPH (7 knots; 3.6 m/s)
Visibility: 10 or more miles (16+ km)
Ceiling: at least 12,000 feet AGL
Clouds: sky clear below 12,000 feet AGL
Present Weather: automated observation with no human augmentation;
there may or may not be significant weather present at this time
KCTY 191815Z AUTO 29007KT 10SM CLR 14/M09 A3036 RMK AO2 T01431092

Conditions at: KCTY observed 19 January 2018  17:55 UTC
Temperature: 13.6°C (56°F)
Dewpoint: -9.4°C (15°F) [RH = 19%]
Pressure (altimeter): 30.37 inches Hg (1028.5 mb)
Winds: from the NW (310 degrees) at 7 MPH (6 knots; 3.1 m/s)
Visibility: 10 or more miles (16+ km)
Ceiling: at least 12,000 feet AGL
Clouds: sky clear below 12,000 feet AGL
Present Weather: automated observation with no human augmentation;
there may or may not be significant weather present at this time
KCTY 191755Z AUTO 31006KT 10SM CLR 14/M09 A3037 RMK AO2 T01361094 10142 21063

Conditions at: KCTY observed 19 January 2018  17:35 UTC
Temperature: 12.5°C (54°F)
Dewpoint: missing
Pressure (altimeter): 30.39 inches Hg (1029.2 mb)
Winds: from the WSW (250 degrees) at 5 MPH (4 knots; 2.1 m/s)
Visibility: 10 or more miles (16+ km)
Ceiling: at least 12,000 feet AGL
Clouds: sky clear below 12,000 feet AGL
Present Weather: automated observation with no human augmentation;
there may or may not be significant weather present at this time
KCTY 191735Z AUTO 25004KT 10SM CLR 12/M10 A3039 RMK AO2 T01251099

Conditions at: KCTY observed 19 January 2018  17:15 UTC
Temperature: 12.5°C (54°F)
Dewpoint: -10.1°C (14°F) [RH = 20%]
Pressure (altimeter): 30.40 inches Hg (1029.5 mb)
Winds: calm
Visibility: 10 or more miles (16+ km)
Ceiling: at least 12,000 feet AGL
Clouds: sky clear below 12,000 feet AGL
Present Weather: automated observation with no human augmentation;
there may or may not be significant weather present at this time
KCTY 191715Z AUTO 00000KT 10SM CLR 12/M10 A3040 RMK AO2 T01251101

Conditions at: KCTY observed 19 January 2018  16:55 UTC
Temperature: 11.5°C (53°F)
Dewpoint: -10.2°C (14°F) [RH = 21%]
Pressure (altimeter): 30.41 inches Hg (1029.9 mb)
Winds: calm
Visibility: 10 or more miles (16+ km)
Ceiling: at least 12,000 feet AGL
Clouds: sky clear below 12,000 feet AGL
Present Weather: automated observation with no human augmentation;
there may or may not be significant weather present at this time
KCTY 191655Z AUTO 00000KT 10SM CLR 12/M10 A3041 RMK AO2 T01151102

Conditions at: KCTY observed 19 January 2018  16:35 UTC
Temperature: 11.4°C (53°F)
Dewpoint: -7.5°C (18°F) [RH = 26%]
Pressure (altimeter): 30.42 inches Hg (1030.2 mb)
Winds: from the E (80 degrees) at 6 MPH (5 knots; 2.6 m/s)
Visibility: 10 or more miles (16+ km)
Ceiling: at least 12,000 feet AGL
Clouds: sky clear below 12,000 feet AGL
Present Weather: automated observation with no human augmentation;
there may or may not be significant weather present at this time
KCTY 191635Z AUTO 08005KT 10SM CLR 11/M07 A3042 RMK AO2 T01141075

Conditions at: KCTY observed 19 January 2018  16:15 UTC
Temperature: 10.1°C (50°F)
Dewpoint: -8.4°C (17°F) [RH = 26%]
Pressure (altimeter): 30.43 inches Hg (1030.6 mb)
Winds: from the N (350 degrees) at 3 MPH (3 knots; 1.6 m/s)
Visibility: 10 or more miles (16+ km)
Ceiling: at least 12,000 feet AGL
Clouds: sky clear below 12,000 feet AGL
Present Weather: automated observation with no human augmentation;
there may or may not be significant weather present at this time
KCTY 191615Z AUTO 35003KT 10SM CLR 10/M08 A3043 RMK AO2 T01011084

Conditions at: KCTY observed 19 January 2018  15:55 UTC
Temperature: 9.5°C (49°F)
Dewpoint: -7.8°C (18°F) [RH = 29%]
Pressure (altimeter): 30.43 inches Hg (1030.6 mb)
Winds: from the N (350 degrees) at 6 MPH (5 knots; 2.6 m/s)
Visibility: 10 or more miles (16+ km)
Ceiling: at least 12,000 feet AGL
Clouds: sky clear below 12,000 feet AGL
Present Weather: automated observation with no human augmentation;
there may or may not be significant weather present at this time
KCTY 191555Z AUTO 35005KT 10SM CLR 09/M08 A3043 RMK AO2 T00951078

Conditions at: KCTY observed 19 January 2018  15:35 UTC
Temperature: 8.8°C (48°F)
Dewpoint: -7.6°C (18°F) [RH = 30%]
Pressure (altimeter): 30.44 inches Hg (1030.9 mb)
Winds: from the N (10 degrees) at 5 MPH (4 knots; 2.1 m/s)
Visibility: 10 or more miles (16+ km)
Ceiling: at least 12,000 feet AGL
Clouds: sky clear below 12,000 feet AGL
Present Weather: automated observation with no human augmentation;
there may or may not be significant weather present at this time
KCTY 191535Z AUTO 01004KT 10SM CLR 09/M08 A3044 RMK AO2 T00881076

Conditions at: KCTY observed 19 January 2018  15:15 UTC
Temperature: 7.4°C (45°F)
Dewpoint: -7.0°C (19°F) [RH = 35%]
Pressure (altimeter): 30.44 inches Hg (1030.9 mb)
Winds: from the N (10 degrees) at 5 MPH (4 knots; 2.1 m/s)
Visibility: 10 or more miles (16+ km)
Ceiling: at least 12,000 feet AGL
Clouds: sky clear below 12,000 feet AGL
Present Weather: automated observation with no human augmentation;
there may or may not be significant weather present at this time
KCTY 191515Z AUTO 01004KT 10SM CLR 07/M07 A3044 RMK AO2 T00741070

Conditions at: KCTY observed 19 January 2018  14:55 UTC
Temperature: 6.2°C (43°F)
Dewpoint: -5.1°C (23°F) [RH = 44%]
Pressure (altimeter): 30.43 inches Hg (1030.6 mb)
Winds: from the N (10 degrees) at 6 MPH (5 knots; 2.6 m/s)
Visibility: 10 or more miles (16+ km)
Ceiling: at least 12,000 feet AGL
Clouds: sky clear below 12,000 feet AGL
Present Weather: automated observation with no human augmentation;
there may or may not be significant weather present at this time
KCTY 191455Z AUTO 01005KT 10SM CLR 06/M05 A3043 RMK AO2 T00621051

Conditions at: KCTY observed 19 January 2018  14:35 UTC
Temperature: 4.2°C (40°F)
Dewpoint: -4.7°C (24°F) [RH = 52%]
Pressure (altimeter): 30.43 inches Hg (1030.6 mb)
Winds: from the NE (40 degrees) at 3 MPH (3 knots; 1.6 m/s)
Visibility: 10 or more miles (16+ km)
Ceiling: at least 12,000 feet AGL
Clouds: sky clear below 12,000 feet AGL
Present Weather: automated observation with no human augmentation;
there may or may not be significant weather present at this time
KCTY 191435Z AUTO 04003KT 10SM CLR 04/M05 A3043 RMK AO2 T00421047

Conditions at: KCTY observed 19 January 2018  14:15 UTC
Temperature: 2.6°C (37°F)
Dewpoint: -3.6°C (26°F) [RH = 64%]
Pressure (altimeter): 30.43 inches Hg (1030.6 mb)
Winds: calm
Visibility: 10 or more miles (16+ km)
Ceiling: at least 12,000 feet AGL
Clouds: sky clear below 12,000 feet AGL
Present Weather: automated observation with no human augmentation;
there may or may not be significant weather present at this time
KCTY 191415Z AUTO 00000KT 10SM CLR 03/M04 A3043 RMK AO2 T00261036

Conditions at: KCTY observed 19 January 2018  13:55 UTC
Temperature: 0.6°C (33°F)
Dewpoint: -2.8°C (27°F) [RH = 78%]
Pressure (altimeter): 30.43 inches Hg (1030.6 mb)
Winds: calm
Visibility: 10 or more miles (16+ km)
Ceiling: at least 12,000 feet AGL
Clouds: sky clear below 12,000 feet AGL
Present Weather: automated observation with no human augmentation;
there may or may not be significant weather present at this time
KCTY 191355Z AUTO 00000KT 10SM CLR 01/M03 A3043 RMK AO2 T00061028

Conditions at: KCTY observed 19 January 2018  13:35 UTC
Temperature: -1.7°C (29°F)
Dewpoint: -3.2°C (26°F) [RH = 89%]
Pressure (altimeter): 30.43 inches Hg (1030.6 mb)
Winds: calm
Visibility: 10 or more miles (16+ km)
Ceiling: at least 12,000 feet AGL
Clouds: sky clear below 12,000 feet AGL
Present Weather: automated observation with no human augmentation;
there may or may not be significant weather present at this time
KCTY 191335Z AUTO 00000KT 10SM CLR M02/M03 A3043 RMK AO2 T10171032

Conditions at: KCTY observed 19 January 2018  13:15 UTC
Temperature: -4.1°C (25°F)
Dewpoint: -4.9°C (23°F) [RH = 94%]
Pressure (altimeter): 30.42 inches Hg (1030.2 mb)
Winds: calm
Visibility: 10 or more miles (16+ km)
Ceiling: at least 12,000 feet AGL
Clouds: sky clear below 12,000 feet AGL
Present Weather: automated observation with no human augmentation;
there may or may not be significant weather present at this time
KCTY 191315Z AUTO 00000KT 10SM CLR M04/M05 A3042 RMK AO2 T10411049

Conditions at: KCTY observed 19 January 2018  12:55 UTC
Temperature: -5.3°C (22°F)
Dewpoint: -6.2°C (21°F) [RH = 93%]
Pressure (altimeter): 30.42 inches Hg (1030.2 mb)
Winds: calm
Visibility: 10 or more miles (16+ km)
Ceiling: at least 12,000 feet AGL
Clouds: sky clear below 12,000 feet AGL
Present Weather: automated observation with no human augmentation;
there may or may not be significant weather present at this time
KCTY 191255Z AUTO 00000KT 10SM CLR M05/M06 A3042 RMK AO2 T10531062

Conditions at: KCTY observed 19 January 2018  12:35 UTC
Temperature: -5.8°C (22°F)
Dewpoint: -6.4°C (20°F) [RH = 96%]
Pressure (altimeter): 30.41 inches Hg (1029.9 mb)
Winds: calm
Visibility: 10 or more miles (16+ km)
Ceiling: at least 12,000 feet AGL
Clouds: sky clear below 12,000 feet AGL
Present Weather: automated observation with no human augmentation;
there may or may not be significant weather present at this time
KCTY 191235Z AUTO 00000KT 10SM CLR M06/M06 A3041 RMK AO2 T10581064

Conditions at: KCTY observed 19 January 2018  12:15 UTC
Temperature: -5.9°C (21°F)
Dewpoint: -7.0°C (19°F) [RH = 92%]
Pressure (altimeter): 30.40 inches Hg (1029.5 mb)
Winds: calm
Visibility: 10 or more miles (16+ km)
Ceiling: at least 12,000 feet AGL
Clouds: sky clear below 12,000 feet AGL
Present Weather: automated observation with no human augmentation;
there may or may not be significant weather present at this time
KCTY 191215Z AUTO 00000KT 10SM CLR M06/M07 A3040 RMK AO2 T10591070

Conditions at: KCTY observed 19 January 2018  11:55 UTC
Temperature: -6.3°C (21°F)
Dewpoint: -7.0°C (19°F) [RH = 95%]
Pressure (altimeter): 30.41 inches Hg (1029.9 mb)
Winds: calm
Visibility: 10 or more miles (16+ km)
Ceiling: at least 12,000 feet AGL
Clouds: sky clear below 12,000 feet AGL
Present Weather: automated observation with no human augmentation;
there may or may not be significant weather present at this time
KCTY 191155Z AUTO 00000KT 10SM CLR M06/M07 A3041 RMK AO2 T10631070 11040 21067

Conditions at: KCTY observed 19 January 2018  11:35 UTC
Temperature: -6.0°C (21°F)
Dewpoint: -7.1°C (19°F) [RH = 92%]
Pressure (altimeter): 30.40 inches Hg (1029.5 mb)
Winds: calm
Visibility: 10 or more miles (16+ km)
Ceiling: at least 12,000 feet AGL
Clouds: sky clear below 12,000 feet AGL
Present Weather: automated observation with no human augmentation;
there may or may not be significant weather present at this time
KCTY 191135Z AUTO 00000KT 10SM CLR M06/M07 A3040 RMK AO2 T10601071

Conditions at: KCTY observed 19 January 2018  11:15 UTC
Temperature: -5.9°C (21°F)
Dewpoint: -6.8°C (20°F) [RH = 93%]
Pressure (altimeter): 30.40 inches Hg (1029.5 mb)
Winds: calm
Visibility: 10 or more miles (16+ km)
Ceiling: at least 12,000 feet AGL
Clouds: sky clear below 12,000 feet AGL
Present Weather: automated observation with no human augmentation;
there may or may not be significant weather present at this time
KCTY 191115Z AUTO 00000KT 10SM CLR M06/M07 A3040 RMK AO2 T10591068

Conditions at: KCTY observed 19 January 2018  10:55 UTC
Temperature: -5.5°C (22°F)
Dewpoint: -6.3°C (21°F) [RH = 94%]
Pressure (altimeter): 30.40 inches Hg (1029.5 mb)
Winds: calm
Visibility: 10 or more miles (16+ km)
Ceiling: at least 12,000 feet AGL
Clouds: sky clear below 12,000 feet AGL
Present Weather: automated observation with no human augmentation;
there may or may not be significant weather present at this time
KCTY 191055Z AUTO 00000KT 10SM CLR M06/M06 A3040 RMK AO2 T10551063

Conditions at: KCTY observed 19 January 2018  10:35 UTC
Temperature: -5.8°C (22°F)
Dewpoint: -6.5°C (20°F) [RH = 95%]
Pressure (altimeter): 30.40 inches Hg (1029.5 mb)
Winds: calm
Visibility: 10 or more miles (16+ km)
Ceiling: at least 12,000 feet AGL
Clouds: sky clear below 12,000 feet AGL
Present Weather: automated observation with no human augmentation;
there may or may not be significant weather present at this time
KCTY 191035Z AUTO 00000KT 10SM CLR M06/M07 A3040 RMK AO2 T10581065

Conditions at: KCTY observed 19 January 2018  10:15 UTC
Temperature: -5.7°C (22°F)
Dewpoint: -6.7°C (20°F) [RH = 93%]
Pressure (altimeter): 30.40 inches Hg (1029.5 mb)
Winds: calm
Visibility: 10 or more miles (16+ km)
Ceiling: at least 12,000 feet AGL
Clouds: sky clear below 12,000 feet AGL
Present Weather: automated observation with no human augmentation;
there may or may not be significant weather present at this time
KCTY 191015Z AUTO 00000KT 10SM CLR M06/M07 A3040 RMK AO2 T10571067

Conditions at: KCTY observed 19 January 2018  09:55 UTC
Temperature: -5.2°C (23°F)
Dewpoint: -5.8°C (22°F) [RH = 96%]
Pressure (altimeter): 30.40 inches Hg (1029.5 mb)
Winds: calm
Visibility: 10 or more miles (16+ km)
Ceiling: at least 12,000 feet AGL
Clouds: sky clear below 12,000 feet AGL
Present Weather: automated observation with no human augmentation;
there may or may not be significant weather present at this time
KCTY 190955Z AUTO 00000KT 10SM CLR M05/M06 A3040 RMK AO2 T10521058

Conditions at: KCTY observed 19 January 2018  09:35 UTC
Temperature: -5.2°C (23°F)
Dewpoint: -6.1°C (21°F) [RH = 93%]
Pressure (altimeter): 30.40 inches Hg (1029.5 mb)
Winds: calm
Visibility: 10 or more miles (16+ km)
Ceiling: at least 12,000 feet AGL
Clouds: sky clear below 12,000 feet AGL
Present Weather: automated observation with no human augmentation;
there may or may not be significant weather present at this time
KCTY 190935Z AUTO 00000KT 10SM CLR M05/M06 A3040 RMK AO2 T10521061

Conditions at: KCTY observed 19 January 2018  09:15 UTC
Temperature: -5.1°C (23°F)
Dewpoint: -6.0°C (21°F) [RH = 93%]
Pressure (altimeter): 30.40 inches Hg (1029.5 mb)
Winds: calm
Visibility: 10 or more miles (16+ km)
Ceiling: at least 12,000 feet AGL
Clouds: sky clear below 12,000 feet AGL
Present Weather: automated observation with no human augmentation;
there may or may not be significant weather present at this time
KCTY 190915Z AUTO 00000KT 10SM CLR M05/M06 A3040 RMK AO2 T10511060

Conditions at: KCTY observed 19 January 2018  08:55 UTC
Temperature: -5.1°C (23°F)
Dewpoint: -6.2°C (21°F) [RH = 92%]
Pressure (altimeter): 30.40 inches Hg (1029.5 mb)
Winds: calm
Visibility: 10 or more miles (16+ km)
Ceiling: at least 12,000 feet AGL
Clouds: sky clear below 12,000 feet AGL
Present Weather: automated observation with no human augmentation;
there may or may not be significant weather present at this time
KCTY 190855Z AUTO 00000KT 10SM CLR M05/M06 A3040 RMK AO2 T10511062

Conditions at: KCTY observed 19 January 2018  08:35 UTC
Temperature: -5.4°C (22°F)
Dewpoint: -6.4°C (20°F) [RH = 93%]
Pressure (altimeter): 30.40 inches Hg (1029.5 mb)
Winds: calm
Visibility: 10 or more miles (16+ km)
Ceiling: at least 12,000 feet AGL
Clouds: sky clear below 12,000 feet AGL
Present Weather: automated observation with no human augmentation;
there may or may not be significant weather present at this time
KCTY 190835Z AUTO 00000KT 10SM CLR M05/M06 A3040 RMK AO2 T10541064

Conditions at: KCTY observed 19 January 2018  08:15 UTC
Temperature: -5.2°C (23°F)
Dewpoint: -6.2°C (21°F) [RH = 93%]
Pressure (altimeter): 30.40 inches Hg (1029.5 mb)
Winds: calm
Visibility: 10 or more miles (16+ km)
Ceiling: at least 12,000 feet AGL
Clouds: sky clear below 12,000 feet AGL
Present Weather: automated observation with no human augmentation;
there may or may not be significant weather present at this time
KCTY 190815Z AUTO 00000KT 10SM CLR M05/M06 A3040 RMK AO2 T10521062

Conditions at: KCTY observed 19 January 2018  07:55 UTC
Temperature: -4.9°C (23°F)
Dewpoint: -6.0°C (21°F) [RH = 92%]
Pressure (altimeter): 30.40 inches Hg (1029.5 mb)
Winds: calm
Visibility: 10 or more miles (16+ km)
Ceiling: at least 12,000 feet AGL
Clouds: sky clear below 12,000 feet AGL
Present Weather: automated observation with no human augmentation;
there may or may not be significant weather present at this time
KCTY 190755Z AUTO 00000KT 10SM CLR M05/M06 A3040 RMK AO2 T10491060

Conditions at: KCTY observed 19 January 2018  07:35 UTC
Temperature: -4.9°C (23°F)
Dewpoint: -5.9°C (21°F) [RH = 93%]
Pressure (altimeter): 30.41 inches Hg (1029.9 mb)
Winds: calm
Visibility: 10 or more miles (16+ km)
Ceiling: at least 12,000 feet AGL
Clouds: sky clear below 12,000 feet AGL
Present Weather: automated observation with no human augmentation;
there may or may not be significant weather present at this time
KCTY 190735Z AUTO 00000KT 10SM CLR M05/M06 A3041 RMK AO2 T10491059

Conditions at: KCTY observed 19 January 2018  07:15 UTC
Temperature: -4.6°C (24°F)
Dewpoint: -5.8°C (22°F) [RH = 91%]
Pressure (altimeter): 30.41 inches Hg (1029.9 mb)
Winds: calm
Visibility: 10 or more miles (16+ km)
Ceiling: at least 12,000 feet AGL
Clouds: sky clear below 12,000 feet AGL
Present Weather: automated observation with no human augmentation;
there may or may not be significant weather present at this time
KCTY 190715Z AUTO 00000KT 10SM CLR M05/M06 A3041 RMK AO2 T10461058

Conditions at: KCTY observed 19 January 2018  06:55 UTC
Temperature: -4.8°C (23°F)
Dewpoint: -6.0°C (21°F) [RH = 91%]
Pressure (altimeter): 30.41 inches Hg (1029.9 mb)
Winds: calm
Visibility: 10 or more miles (16+ km)
Ceiling: at least 12,000 feet AGL
Clouds: sky clear below 12,000 feet AGL
Present Weather: automated observation with no human augmentation;
there may or may not be significant weather present at this time
KCTY 190655Z AUTO 00000KT 10SM CLR M05/M06 A3041 RMK AO2 T10481060

Conditions at: KCTY observed 19 January 2018  06:35 UTC
Temperature: -4.5°C (24°F)
Dewpoint: -5.7°C (22°F) [RH = 91%]
Pressure (altimeter): 30.41 inches Hg (1029.9 mb)
Winds: calm
Visibility: 10 or more miles (16+ km)
Ceiling: at least 12,000 feet AGL
Clouds: sky clear below 12,000 feet AGL
Present Weather: automated observation with no human augmentation;
there may or may not be significant weather present at this time
KCTY 190635Z AUTO 00000KT 10SM CLR M04/M06 A3041 RMK AO2 T10451057

Conditions at: KCTY observed 19 January 2018  06:15 UTC
Temperature: -4.4°C (24°F)
Dewpoint: -5.7°C (22°F) [RH = 91%]
Pressure (altimeter): 30.42 inches Hg (1030.2 mb)
Winds: calm
Visibility: 10 or more miles (16+ km)
Ceiling: at least 12,000 feet AGL
Clouds: sky clear below 12,000 feet AGL
Present Weather: automated observation with no human augmentation;
there may or may not be significant weather present at this time
KCTY 190615Z AUTO 00000KT 10SM CLR M04/M06 A3042 RMK AO2 T10441057

Conditions at: KCTY observed 19 January 2018  05:55 UTC
Temperature: -4.3°C (24°F)
Dewpoint: -5.6°C (22°F) [RH = 91%]
Pressure (altimeter): 30.42 inches Hg (1030.2 mb)
Winds: calm
Visibility: 10 or more miles (16+ km)
Ceiling: at least 12,000 feet AGL
Clouds: sky clear below 12,000 feet AGL
Present Weather: automated observation with no human augmentation;
there may or may not be significant weather present at this time
KCTY 190555Z AUTO 00000KT 10SM CLR M04/M06 A3042 RMK AO2 T10431056 10013 21044

Conditions at: KCTY observed 19 January 2018  05:35 UTC
Temperature: -3.9°C (25°F)
Dewpoint: -5.5°C (22°F) [RH = 89%]
Pressure (altimeter): 30.42 inches Hg (1030.2 mb)
Winds: calm
Visibility: 10 or more miles (16+ km)
Ceiling: at least 12,000 feet AGL
Clouds: sky clear below 12,000 feet AGL
Present Weather: automated observation with no human augmentation;
there may or may not be significant weather present at this time
KCTY 190535Z AUTO 00000KT 10SM CLR M04/M05 A3042 RMK AO2 T10391055

Conditions at: KCTY observed 19 January 2018  05:15 UTC
Temperature: -3.9°C (25°F)
Dewpoint: -5.5°C (22°F) [RH = 89%]
Pressure (altimeter): 30.43 inches Hg (1030.6 mb)
Winds: calm
Visibility: 10 or more miles (16+ km)
Ceiling: at least 12,000 feet AGL
Clouds: sky clear below 12,000 feet AGL
Present Weather: automated observation with no human augmentation;
there may or may not be significant weather present at this time
KCTY 190515Z AUTO 00000KT 10SM CLR M04/M06 A3043 RMK AO2 T10391055

Conditions at: KCTY observed 19 January 2018  04:55 UTC
Temperature: -3.9°C (25°F)
Dewpoint: -5.4°C (22°F) [RH = 89%]
Pressure (altimeter): 30.43 inches Hg (1030.6 mb)
Winds: calm
Visibility: 10 or more miles (16+ km)
Ceiling: at least 12,000 feet AGL
Clouds: sky clear below 12,000 feet AGL
Present Weather: automated observation with no human augmentation;
there may or may not be significant weather present at this time
KCTY 190455Z AUTO 00000KT 10SM CLR M04/M05 A3043 RMK AO2 T10391054

Conditions at: KCTY observed 19 January 2018  04:35 UTC
Temperature: -3.7°C (25°F)
Dewpoint: -5.4°C (22°F) [RH = 88%]
Pressure (altimeter): 30.43 inches Hg (1030.6 mb)
Winds: calm
Visibility: 10 or more miles (16+ km)
Ceiling: at least 12,000 feet AGL
Clouds: sky clear below 12,000 feet AGL
Present Weather: automated observation with no human augmentation;
there may or may not be significant weather present at this time
KCTY 190435Z AUTO 00000KT 10SM CLR M04/M05 A3043 RMK AO2 T10371054

Conditions at: KCTY observed 19 January 2018  04:15 UTC
Temperature: -3.2°C (26°F)
Dewpoint: -4.5°C (24°F) [RH = 91%]
Pressure (altimeter): 30.44 inches Hg (1030.9 mb)
Winds: calm
Visibility: 7 miles (11 km)
Ceiling: at least 12,000 feet AGL
Clouds: sky clear below 12,000 feet AGL
Present Weather: automated observation with no human augmentation;
there may or may not be significant weather present at this time
KCTY 190415Z AUTO 00000KT 7SM CLR M03/M04 A3044 RMK AO2 T10321045

Conditions at: KCTY observed 19 January 2018  03:55 UTC
Temperature: -3.1°C (26°F)
Dewpoint: -5.2°C (23°F) [RH = 85%]
Pressure (altimeter): 30.43 inches Hg (1030.6 mb)
Winds: calm
Visibility: 10 or more miles (16+ km)
Ceiling: at least 12,000 feet AGL
Clouds: sky clear below 12,000 feet AGL
Present Weather: automated observation with no human augmentation;
there may or may not be significant weather present at this time
KCTY 190355Z AUTO 00000KT 10SM CLR M03/M05 A3043 RMK AO2 T10311052

Conditions at: KCTY observed 19 January 2018  03:35 UTC
Temperature: -2.7°C (27°F)
Dewpoint: -4.8°C (23°F) [RH = 85%]
Pressure (altimeter): 30.44 inches Hg (1030.9 mb)
Winds: calm
Visibility: 10 or more miles (16+ km)
Ceiling: at least 12,000 feet AGL
Clouds: sky clear below 12,000 feet AGL
Present Weather: automated observation with no human augmentation;
there may or may not be significant weather present at this time
KCTY 190335Z AUTO 00000KT 10SM CLR M03/M05 A3044 RMK AO2 T10271048

Conditions at: KCTY observed 19 January 2018  03:15 UTC
Temperature: -2.9°C (27°F)
Dewpoint: -5.0°C (23°F) [RH = 85%]
Pressure (altimeter): 30.44 inches Hg (1030.9 mb)
Winds: calm
Visibility: 10 or more miles (16+ km)
Ceiling: at least 12,000 feet AGL
Clouds: sky clear below 12,000 feet AGL
Present Weather: automated observation with no human augmentation;
there may or may not be significant weather present at this time
KCTY 190315Z AUTO 00000KT 10SM CLR M03/M05 A3044 RMK AO2 T10291050

Conditions at: KCTY observed 19 January 2018  02:55 UTC
Temperature: -2.2°C (28°F)
Dewpoint: -4.7°C (24°F) [RH = 83%]
Pressure (altimeter): 30.43 inches Hg (1030.6 mb)
Winds: calm
Visibility: 10 or more miles (16+ km)
Ceiling: at least 12,000 feet AGL
Clouds: sky clear below 12,000 feet AGL
Present Weather: automated observation with no human augmentation;
there may or may not be significant weather present at this time
KCTY 190255Z AUTO 00000KT 10SM CLR M02/M05 A3043 RMK AO2 T10221047

Conditions at: KCTY observed 19 January 2018  02:35 UTC
Temperature: -1.8°C (29°F)
Dewpoint: -4.8°C (23°F) [RH = 80%]
Pressure (altimeter): 30.44 inches Hg (1030.9 mb)
Winds: calm
Visibility: 10 or more miles (16+ km)
Ceiling: at least 12,000 feet AGL
Clouds: sky clear below 12,000 feet AGL
Present Weather: automated observation with no human augmentation;
there may or may not be significant weather present at this time
KCTY 190235Z AUTO 00000KT 10SM CLR M02/M05 A3044 RMK AO2 T10181048

Conditions at: KCTY observed 19 January 2018  02:15 UTC
Temperature: -2.1°C (28°F)
Dewpoint: -5.3°C (22°F) [RH = 79%]
Pressure (altimeter): 30.44 inches Hg (1030.9 mb)
Winds: calm
Visibility: 10 or more miles (16+ km)
Ceiling: at least 12,000 feet AGL
Clouds: sky clear below 12,000 feet AGL
Present Weather: automated observation with no human augmentation;
there may or may not be significant weather present at this time
KCTY 190215Z AUTO 00000KT 10SM CLR M02/M05 A3044 RMK AO2 T10211053

Conditions at: KCTY observed 19 January 2018  01:55 UTC
Temperature: -1.6°C (29°F)
Dewpoint: -5.2°C (23°F) [RH = 76%]
Pressure (altimeter): 30.43 inches Hg (1030.6 mb)
Winds: calm
Visibility: 10 or more miles (16+ km)
Ceiling: at least 12,000 feet AGL
Clouds: sky clear below 12,000 feet AGL
Present Weather: automated observation with no human augmentation;
there may or may not be significant weather present at this time
KCTY 190155Z AUTO 00000KT 10SM CLR M02/M05 A3043 RMK AO2 T10161052

Conditions at: KCTY observed 19 January 2018  01:35 UTC
Temperature: -1.5°C (29°F)
Dewpoint: -5.3°C (22°F) [RH = 75%]
Pressure (altimeter): 30.43 inches Hg (1030.6 mb)
Winds: calm
Visibility: 10 or more miles (16+ km)
Ceiling: at least 12,000 feet AGL
Clouds: sky clear below 12,000 feet AGL
Present Weather: automated observation with no human augmentation;
there may or may not be significant weather present at this time
KCTY 190135Z AUTO 00000KT 10SM CLR M01/M05 A3043 RMK AO2 T10151053

Conditions at: KCTY observed 19 January 2018  01:15 UTC
Temperature: -0.5°C (31°F)
Dewpoint: -5.0°C (23°F) [RH = 72%]
Pressure (altimeter): 30.42 inches Hg (1030.2 mb)
Winds: calm
Visibility: 10 or more miles (16+ km)
Ceiling: at least 12,000 feet AGL
Clouds: sky clear below 12,000 feet AGL
Present Weather: automated observation with no human augmentation;
there may or may not be significant weather present at this time
KCTY 190115Z AUTO 00000KT 10SM CLR M01/M05 A3042 RMK AO2 T10051050

Conditions at: KCTY observed 19 January 2018  00:55 UTC
Temperature: -0.6°C (31°F)
Dewpoint: -5.2°C (23°F) [RH = 71%]
Pressure (altimeter): 30.41 inches Hg (1029.9 mb)
Winds: calm
Visibility: 10 or more miles (16+ km)
Ceiling: at least 12,000 feet AGL
Clouds: sky clear below 12,000 feet AGL
Present Weather: automated observation with no human augmentation;
there may or may not be significant weather present at this time
KCTY 190055Z AUTO 00000KT 10SM CLR M01/M05 A3041 RMK AO2 T10061052

Conditions at: KCTY observed 19 January 2018  00:35 UTC
Temperature: 0.3°C (33°F)
Dewpoint: -5.1°C (23°F) [RH = 67%]
Pressure (altimeter): 30.41 inches Hg (1029.9 mb)
Winds: calm
Visibility: 10 or more miles (16+ km)
Ceiling: at least 12,000 feet AGL
Clouds: sky clear below 12,000 feet AGL
Present Weather: automated observation with no human augmentation;
there may or may not be significant weather present at this time
KCTY 190035Z AUTO 00000KT 10SM CLR 00/M05 A3041 RMK AO2 T00031051

Conditions at: KCTY observed 19 January 2018  00:15 UTC
Temperature: 0.5°C (33°F)
Dewpoint: -5.2°C (23°F) [RH = 66%]
Pressure (altimeter): 30.41 inches Hg (1029.9 mb)
Winds: calm
Visibility: 10 or more miles (16+ km)
Ceiling: at least 12,000 feet AGL
Clouds: sky clear below 12,000 feet AGL
Present Weather: automated observation with no human augmentation;
there may or may not be significant weather present at this time
KCTY 190015Z AUTO 00000KT 10SM CLR 01/M05 A3041 RMK AO2 T00051052

Conditions at: KCTY observed 18 January 2018  23:55 UTC
Temperature: 1.7°C (35°F)
Dewpoint: -5.2°C (23°F) [RH = 60%]
Pressure (altimeter): 30.41 inches Hg (1029.9 mb)
Winds: calm
Visibility: 10 or more miles (16+ km)
Ceiling: at least 12,000 feet AGL
Clouds: sky clear below 12,000 feet AGL
Present Weather: automated observation with no human augmentation;
there may or may not be significant weather present at this time
KCTY 182355Z AUTO 00000KT 10SM CLR 02/M05 A3041 RMK AO2 T00171052 10098 20013 400981063

Conditions at: KCTY observed 18 January 2018  23:35 UTC
Temperature: 2.4°C (36°F)
Dewpoint: -5.2°C (23°F) [RH = 57%]
Pressure (altimeter): 30.40 inches Hg (1029.5 mb)
Winds: calm
Visibility: 10 or more miles (16+ km)
Ceiling: at least 12,000 feet AGL
Clouds: sky clear below 12,000 feet AGL
Present Weather: automated observation with no human augmentation;
there may or may not be significant weather present at this time
KCTY 182335Z AUTO 00000KT 10SM CLR 02/M05 A3040 RMK AO2 T00241052

Conditions at: KCTY observed 18 January 2018  23:15 UTC
Temperature: 4.9°C (41°F)
Dewpoint: -6.0°C (21°F) [RH = 45%]
Pressure (altimeter): 30.40 inches Hg (1029.5 mb)
Winds: calm
Visibility: 10 or more miles (16+ km)
Ceiling: at least 12,000 feet AGL
Clouds: sky clear below 12,000 feet AGL
Present Weather: automated observation with no human augmentation;
there may or may not be significant weather present at this time
KCTY 182315Z AUTO 00000KT 10SM CLR 05/M06 A3040 RMK AO2 T00491060

Conditions at: KCTY observed 18 January 2018  22:55 UTC
Temperature: 7.3°C (45°F)
Dewpoint: -7.5°C (18°F) [RH = 34%]
Pressure (altimeter): 30.39 inches Hg (1029.2 mb)
Winds: calm
Visibility: 10 or more miles (16+ km)
Ceiling: at least 12,000 feet AGL
Clouds: sky clear below 12,000 feet AGL
Present Weather: automated observation with no human augmentation;
there may or may not be significant weather present at this time
KCTY 182255Z AUTO 00000KT 10SM CLR 07/M08 A3039 RMK AO2 T00731075

Conditions at: KCTY observed 18 January 2018  22:35 UTC
Temperature: 8.2°C (47°F)
Dewpoint: -8.4°C (17°F) [RH = 30%]
Pressure (altimeter): 30.39 inches Hg (1029.2 mb)
Winds: from the N (360 degrees) at 5 MPH (4 knots; 2.1 m/s)
Visibility: 10 or more miles (16+ km)
Ceiling: at least 12,000 feet AGL
Clouds: sky clear below 12,000 feet AGL
Present Weather: automated observation with no human augmentation;
there may or may not be significant weather present at this time
KCTY 182235Z AUTO 36004KT 10SM CLR 08/M08 A3039 RMK AO2 T00821084

Conditions at: KCTY observed 18 January 2018  22:15 UTC
Temperature: 9.0°C (48°F)
Dewpoint: -9.0°C (16°F) [RH = 27%]
Pressure (altimeter): 30.39 inches Hg (1029.2 mb)
Winds: from the N (360 degrees) at 7 MPH (6 knots; 3.1 m/s)
Visibility: 10 or more miles (16+ km)
Ceiling: at least 12,000 feet AGL
Clouds: sky clear below 12,000 feet AGL
Present Weather: automated observation with no human augmentation;
there may or may not be significant weather present at this time
KCTY 182215Z AUTO 36006KT 10SM CLR 09/M09 A3039 RMK AO2 T00901090

Conditions at: KCTY observed 18 January 2018  21:55 UTC
Temperature: 9.3°C (49°F)
Dewpoint: -9.1°C (16°F) [RH = 26%]
Pressure (altimeter): 30.38 inches Hg (1028.9 mb)
Winds: from the N (350 degrees) at 6 MPH (5 knots; 2.6 m/s)
Visibility: 10 or more miles (16+ km)
Ceiling: at least 12,000 feet AGL
Clouds: sky clear below 12,000 feet AGL
Present Weather: automated observation with no human augmentation;
there may or may not be significant weather present at this time
KCTY 182155Z AUTO 35005KT 10SM CLR 09/M09 A3038 RMK AO2 T00931091

Conditions at: KCTY observed 18 January 2018  21:35 UTC
Temperature: 9.6°C (49°F)
Dewpoint: -9.1°C (16°F) [RH = 26%]
Pressure (altimeter): 30.38 inches Hg (1028.9 mb)
Winds: from the N (10 degrees) at 9 MPH (8 knots; 4.2 m/s)
Visibility: 10 or more miles (16+ km)
Ceiling: at least 12,000 feet AGL
Clouds: sky clear below 12,000 feet AGL
Present Weather: automated observation with no human augmentation;
there may or may not be significant weather present at this time
KCTY 182135Z AUTO 01008KT 10SM CLR 10/M09 A3038 RMK AO2 T00961091

Conditions at: KCTY observed 18 January 2018  21:15 UTC
Temperature: 9.6°C (49°F)
Dewpoint: -9.1°C (16°F) [RH = 26%]
Pressure (altimeter): 30.38 inches Hg (1028.9 mb)
Winds: from the ENE (60 degrees) at 7 MPH (6 knots; 3.1 m/s)
Visibility: 10 or more miles (16+ km)
Ceiling: at least 12,000 feet AGL
Clouds: sky clear below 12,000 feet AGL
Present Weather: automated observation with no human augmentation;
there may or may not be significant weather present at this time
KCTY 182115Z AUTO 06006KT 10SM CLR 10/M09 A3038 RMK AO2 T00961091

Conditions at: KCTY observed 18 January 2018  20:55 UTC
Temperature: 9.3°C (49°F)
Dewpoint: -9.2°C (15°F) [RH = 26%]
Pressure (altimeter): 30.38 inches Hg (1028.9 mb)
Winds: from the ENE (70 degrees) at 7 MPH (6 knots; 3.1 m/s)
Visibility: 10 or more miles (16+ km)
Ceiling: at least 12,000 feet AGL
Clouds: sky clear below 12,000 feet AGL
Present Weather: automated observation with no human augmentation;
there may or may not be significant weather present at this time
KCTY 182055Z AUTO 07006KT 10SM CLR 09/M09 A3038 RMK AO2 T00931092

Conditions at: KCTY observed 18 January 2018  20:35 UTC
Temperature: 9.3°C (49°F)
Dewpoint: -9.4°C (15°F) [RH = 26%]
Pressure (altimeter): 30.39 inches Hg (1029.2 mb)
Winds: from the N (10 degrees) at 7 MPH (6 knots; 3.1 m/s)
Visibility: 10 or more miles (16+ km)
Ceiling: at least 12,000 feet AGL
Clouds: sky clear below 12,000 feet AGL
Present Weather: automated observation with no human augmentation;
there may or may not be significant weather present at this time
KCTY 182035Z AUTO 01006KT 10SM CLR 09/M09 A3039 RMK AO2 T00931094

Conditions at: KCTY observed 18 January 2018  20:15 UTC
Temperature: 8.9°C (48°F)
Dewpoint: -9.2°C (15°F) [RH = 27%]
Pressure (altimeter): 30.39 inches Hg (1029.2 mb)
Winds: from the NE (40 degrees) at 8 MPH (7 knots; 3.6 m/s)
Visibility: 10 or more miles (16+ km)
Ceiling: at least 12,000 feet AGL
Clouds: sky clear below 12,000 feet AGL
Present Weather: automated observation with no human augmentation;
there may or may not be significant weather present at this time
KCTY 182015Z AUTO 04007KT 10SM CLR 09/M09 A3039 RMK AO2 T00891092

Conditions at: KCTY observed 18 January 2018  19:55 UTC
Temperature: 8.5°C (47°F)
Dewpoint: -9.2°C (15°F) [RH = 27%]
Pressure (altimeter): 30.39 inches Hg (1029.2 mb)
Winds: from the NNE (20 degrees) at 9 MPH (8 knots; 4.2 m/s)
Visibility: 10 or more miles (16+ km)
Ceiling: at least 12,000 feet AGL
Clouds: sky clear below 12,000 feet AGL
Present Weather: automated observation with no human augmentation;
there may or may not be significant weather present at this time
KCTY 181955Z AUTO 02008KT 10SM CLR 09/M09 A3039 RMK AO2 T00851092

Conditions at: KCTY observed 18 January 2018  19:35 UTC
Temperature: 8.4°C (47°F)
Dewpoint: -9.6°C (15°F) [RH = 27%]
Pressure (altimeter): 30.40 inches Hg (1029.5 mb)
Winds: from the NNW (340 degrees) at 6 MPH (5 knots; 2.6 m/s)
Visibility: 10 or more miles (16+ km)
Ceiling: at least 12,000 feet AGL
Clouds: sky clear below 12,000 feet AGL
Present Weather: automated observation with no human augmentation;
there may or may not be significant weather present at this time
KCTY 181935Z AUTO 34005KT 10SM CLR 08/M10 A3040 RMK AO2 T00841096

Conditions at: KCTY observed 18 January 2018  19:15 UTC
Temperature: 8.0°C (46°F)
Dewpoint: -9.7°C (15°F) [RH = 27%]
Pressure (altimeter): 30.41 inches Hg (1029.9 mb)
Winds: from the NNE (20 degrees) at 7 MPH (6 knots; 3.1 m/s)
Visibility: 10 or more miles (16+ km)
Ceiling: at least 12,000 feet AGL
Clouds: sky clear below 12,000 feet AGL
Present Weather: automated observation with no human augmentation;
there may or may not be significant weather present at this time
KCTY 181915Z AUTO 02006KT 10SM CLR 08/M10 A3041 RMK AO2 T00801097

Conditions at: KCTY observed 18 January 2018  18:55 UTC
Temperature: 7.4°C (45°F)
Dewpoint: -9.4°C (15°F) [RH = 29%]
Pressure (altimeter): 30.41 inches Hg (1029.9 mb)
Winds: from the NNE (30 degrees) at 7 MPH (6 knots; 3.1 m/s)
Visibility: 10 or more miles (16+ km)
Ceiling: at least 12,000 feet AGL
Clouds: sky clear below 12,000 feet AGL
Present Weather: automated observation with no human augmentation;
there may or may not be significant weather present at this time
KCTY 181855Z AUTO 03006KT 10SM CLR 07/M09 A3041 RMK AO2 T00741094

Conditions at: KCTY observed 18 January 2018  18:35 UTC
Temperature: 6.9°C (44°F)
Dewpoint: -9.3°C (15°F) [RH = 30%]
Pressure (altimeter): 30.43 inches Hg (1030.6 mb)
Winds: from the NNE (30 degrees) at 5 MPH (4 knots; 2.1 m/s)
Visibility: 10 or more miles (16+ km)
Ceiling: at least 12,000 feet AGL
Clouds: sky clear below 12,000 feet AGL
Present Weather: automated observation with no human augmentation;
there may or may not be significant weather present at this time
KCTY 181835Z AUTO 03004KT 10SM CLR 07/M09 A3043 RMK AO2 T00691093

Conditions at: KCTY observed 18 January 2018  18:15 UTC
Temperature: 6.5°C (44°F)
Dewpoint: -9.3°C (15°F) [RH = 31%]
Pressure (altimeter): 30.44 inches Hg (1030.9 mb)
Winds: from the NNE (20 degrees) at 7 MPH (6 knots; 3.1 m/s)
Visibility: 10 or more miles (16+ km)
Ceiling: at least 12,000 feet AGL
Clouds: sky clear below 12,000 feet AGL
Present Weather: automated observation with no human augmentation;
there may or may not be significant weather present at this time
KCTY 181815Z AUTO 02006KT 10SM CLR 06/M09 A3044 RMK AO2 T00651093

Conditions at: KCTY observed 18 January 2018  17:55 UTC
Temperature: 5.8°C (42°F)
Dewpoint: -9.4°C (15°F) [RH = 33%]
Pressure (altimeter): 30.45 inches Hg (1031.2 mb)
Winds: from the NNE (20 degrees) at 8 MPH (7 knots; 3.6 m/s)
Visibility: 10 or more miles (16+ km)
Ceiling: at least 12,000 feet AGL
Clouds: sky clear below 12,000 feet AGL
Present Weather: automated observation with no human augmentation;
there may or may not be significant weather present at this time
KCTY 181755Z AUTO 02007KT 340V040 10SM CLR 06/M09 A3045 RMK AO2 T00581094 10061 21063

Conditions at: KCTY observed 18 January 2018  17:35 UTC
Temperature: 5.6°C (42°F)
Dewpoint: -9.3°C (15°F) [RH = 33%]
Pressure (altimeter): 30.46 inches Hg (1031.6 mb)
Winds: from the NE (50 degrees) at 7 MPH (6 knots; 3.1 m/s)
Visibility: 10 or more miles (16+ km)
Ceiling: at least 12,000 feet AGL
Clouds: sky clear below 12,000 feet AGL
Present Weather: automated observation with no human augmentation;
there may or may not be significant weather present at this time
KCTY 181735Z AUTO 05006KT 10SM CLR 06/M09 A3046 RMK AO2 T00561093

Conditions at: KCTY observed 18 January 2018  17:15 UTC
Temperature: 4.4°C (40°F)
Dewpoint: -9.4°C (15°F) [RH = 36%]
Pressure (altimeter): 30.47 inches Hg (1031.9 mb)
Winds: from the NNE (20 degrees) at 8 MPH (7 knots; 3.6 m/s)
Visibility: 10 or more miles (16+ km)
Ceiling: at least 12,000 feet AGL
Clouds: sky clear below 12,000 feet AGL
Present Weather: automated observation with no human augmentation;
there may or may not be significant weather present at this time
KCTY 181715Z AUTO 02007KT 10SM CLR 04/M09 A3047 RMK AO2 T00441094

Conditions at: KCTY observed 18 January 2018  16:55 UTC
Temperature: 3.7°C (39°F)
Dewpoint: -9.3°C (15°F) [RH = 38%]
Pressure (altimeter): 30.49 inches Hg (1032.6 mb)
Winds: from the N (360 degrees) at 7 MPH (6 knots; 3.1 m/s)
Visibility: 10 or more miles (16+ km)
Ceiling: at least 12,000 feet AGL
Clouds: sky clear below 12,000 feet AGL
Present Weather: automated observation with no human augmentation;
there may or may not be significant weather present at this time
KCTY 181655Z AUTO 36006KT 10SM CLR 04/M09 A3049 RMK AO2 T00371093

Conditions at: KCTY observed 18 January 2018  16:35 UTC
Temperature: 3.0°C (37°F)
Dewpoint: -9.0°C (16°F) [RH = 41%]
Pressure (altimeter): 30.50 inches Hg (1032.9 mb)
Winds: from the NNE (20 degrees) at 8 MPH (7 knots; 3.6 m/s)
Visibility: 10 or more miles (16+ km)
Ceiling: at least 12,000 feet AGL
Clouds: sky clear below 12,000 feet AGL
Present Weather: automated observation with no human augmentation;
there may or may not be significant weather present at this time
KCTY 181635Z AUTO 02007KT 10SM CLR 03/M09 A3050 RMK AO2 T00301090

Conditions at: KCTY observed 18 January 2018  16:15 UTC
Temperature: 1.9°C (35°F)
Dewpoint: -9.5°C (15°F) [RH = 42%]
Pressure (altimeter): 30.51 inches Hg (1033.3 mb)
Winds: from the NNE (30 degrees) at 6 MPH (5 knots; 2.6 m/s)
Visibility: 10 or more miles (16+ km)
Ceiling: at least 12,000 feet AGL
Clouds: sky clear below 12,000 feet AGL
Present Weather: automated observation with no human augmentation;
there may or may not be significant weather present at this time
KCTY 181615Z AUTO 03005KT 10SM CLR 02/M09 A3051 RMK AO2 T00191095

Conditions at: KCTY observed 18 January 2018  15:55 UTC
Temperature: 1.5°C (35°F)
Dewpoint: -9.5°C (15°F) [RH = 44%]
Pressure (altimeter): 30.51 inches Hg (1033.3 mb)
Winds: from the NNE (30 degrees) at 8 MPH (7 knots; 3.6 m/s)
Visibility: 10 or more miles (16+ km)
Ceiling: at least 12,000 feet AGL
Clouds: sky clear below 12,000 feet AGL
Present Weather: automated observation with no human augmentation;
there may or may not be significant weather present at this time
KCTY 181555Z AUTO 03007KT 10SM CLR 01/M10 A3051 RMK AO2 T00151095

Conditions at: KCTY observed 18 January 2018  15:35 UTC
Temperature: 0.5°C (33°F)
Dewpoint: -9.8°C (14°F) [RH = 46%]
Pressure (altimeter): 30.51 inches Hg (1033.3 mb)
Winds: calm
Visibility: 10 or more miles (16+ km)
Ceiling: at least 12,000 feet AGL
Clouds: sky clear below 12,000 feet AGL
Present Weather: automated observation with no human augmentation;
there may or may not be significant weather present at this time
KCTY 181535Z AUTO 00000KT 10SM CLR 01/M10 A3051 RMK AO2 T00051098

Conditions at: KCTY observed 18 January 2018  15:15 UTC
Temperature: -0.2°C (32°F)
Dewpoint: -10.0°C (14°F) [RH = 48%]
Pressure (altimeter): 30.51 inches Hg (1033.3 mb)
Winds: from the N (10 degrees) at 6 MPH (5 knots; 2.6 m/s)
Visibility: 10 or more miles (16+ km)
Ceiling: at least 12,000 feet AGL
Clouds: sky clear below 12,000 feet AGL
Present Weather: automated observation with no human augmentation;
there may or may not be significant weather present at this time
KCTY 181515Z AUTO 01005KT 10SM CLR 00/M10 A3051 RMK AO2 T10021100

Conditions at: KCTY observed 18 January 2018  14:55 UTC
Temperature: -1.3°C (30°F)
Dewpoint: -10.5°C (13°F) [RH = 50%]
Pressure (altimeter): 30.50 inches Hg (1032.9 mb)
Winds: from the N (350 degrees) at 5 MPH (4 knots; 2.1 m/s)
Visibility: 10 or more miles (16+ km)
Ceiling: at least 12,000 feet AGL
Clouds: sky clear below 12,000 feet AGL
Present Weather: automated observation with no human augmentation;
there may or may not be significant weather present at this time
KCTY 181455Z AUTO 35004KT 10SM CLR M01/M10 A3050 RMK AO2 T10131105

Conditions at: KCTY observed 18 January 2018  14:35 UTC
Temperature: -1.7°C (29°F)
Dewpoint: -10.4°C (13°F) [RH = 51%]
Pressure (altimeter): 30.50 inches Hg (1032.9 mb)
Winds: from the N (10 degrees) at 6 MPH (5 knots; 2.6 m/s)
Visibility: 10 or more miles (16+ km)
Ceiling: at least 12,000 feet AGL
Clouds: sky clear below 12,000 feet AGL
Present Weather: automated observation with no human augmentation;
there may or may not be significant weather present at this time
KCTY 181435Z AUTO 01005KT 10SM CLR M02/M10 A3050 RMK AO2 T10171104

Conditions at: KCTY observed 18 January 2018  14:15 UTC
Temperature: -2.5°C (28°F)
Dewpoint: -10.6°C (13°F) [RH = 54%]
Pressure (altimeter): 30.50 inches Hg (1032.9 mb)
Winds: from the N (360 degrees) at 7 MPH (6 knots; 3.1 m/s)
Visibility: 10 or more miles (16+ km)
Ceiling: at least 12,000 feet AGL
Clouds: sky clear below 12,000 feet AGL
Present Weather: automated observation with no human augmentation;
there may or may not be significant weather present at this time
KCTY 181415Z AUTO 36006KT 10SM CLR M02/M11 A3050 RMK AO2 T10251106

Conditions at: KCTY observed 18 January 2018  13:55 UTC
Temperature: -3.2°C (26°F)
Dewpoint: -10.7°C (13°F) [RH = 56%]
Pressure (altimeter): 30.49 inches Hg (1032.6 mb)
Winds: from the NNE (20 degrees) at 10 MPH (9 knots; 4.7 m/s)
Visibility: 10 or more miles (16+ km)
Ceiling: at least 12,000 feet AGL
Clouds: sky clear below 12,000 feet AGL
Present Weather: automated observation with no human augmentation;
there may or may not be significant weather present at this time
KCTY 181355Z AUTO 02009KT 10SM CLR M03/M11 A3049 RMK AO2 T10321107

Conditions at: KCTY observed 18 January 2018  13:35 UTC
Temperature: -3.8°C (25°F)
Dewpoint: -10.7°C (13°F) [RH = 59%]
Pressure (altimeter): 30.48 inches Hg (1032.3 mb)
Winds: from the NNE (20 degrees) at 9 MPH (8 knots; 4.2 m/s)
Visibility: 10 or more miles (16+ km)
Ceiling: at least 12,000 feet AGL
Clouds: sky clear below 12,000 feet AGL
Present Weather: automated observation with no human augmentation;
there may or may not be significant weather present at this time
KCTY 181335Z AUTO 02008KT 10SM CLR M04/M11 A3048 RMK AO2 T10381107

Conditions at: KCTY observed 18 January 2018  13:15 UTC
Temperature: -4.6°C (24°F)
Dewpoint: -10.6°C (13°F) [RH = 63%]
Pressure (altimeter): 30.48 inches Hg (1032.3 mb)
Winds: from the N (10 degrees) at 8 MPH (7 knots; 3.6 m/s)
Visibility: 10 or more miles (16+ km)
Ceiling: at least 12,000 feet AGL
Clouds: sky clear below 12,000 feet AGL
Present Weather: automated observation with no human augmentation;
there may or may not be significant weather present at this time
KCTY 181315Z AUTO 01007KT 10SM CLR M05/M11 A3048 RMK AO2 T10461106

Conditions at: KCTY observed 18 January 2018  12:55 UTC
Temperature: -5.5°C (22°F)
Dewpoint: -10.6°C (13°F) [RH = 67%]
Pressure (altimeter): 30.47 inches Hg (1031.9 mb)
Winds: from the N (10 degrees) at 7 MPH (6 knots; 3.1 m/s)
Visibility: 10 or more miles (16+ km)
Ceiling: at least 12,000 feet AGL
Clouds: sky clear below 12,000 feet AGL
Present Weather: automated observation with no human augmentation;
there may or may not be significant weather present at this time
KCTY 181255Z AUTO 01006KT 10SM CLR M06/M11 A3047 RMK AO2 T10551106

Conditions at: KCTY observed 18 January 2018  12:35 UTC
Temperature: -5.9°C (21°F)
Dewpoint: -10.8°C (13°F) [RH = 68%]
Pressure (altimeter): 30.47 inches Hg (1031.9 mb)
Winds: from the N (10 degrees) at 7 MPH (6 knots; 3.1 m/s)
Visibility: 10 or more miles (16+ km)
Ceiling: at least 12,000 feet AGL
Clouds: sky clear below 12,000 feet AGL
Present Weather: automated observation with no human augmentation;
there may or may not be significant weather present at this time
KCTY 181235Z AUTO 01006KT 10SM CLR M06/M11 A3047 RMK AO2 T10591108

Conditions at: KCTY observed 18 January 2018  12:15 UTC
Temperature: -6.1°C (21°F)
Dewpoint: -11.1°C (12°F) [RH = 68%]
Pressure (altimeter): 30.48 inches Hg (1032.3 mb)
Winds: from the N (360 degrees) at 5 MPH (4 knots; 2.1 m/s)
Visibility: 10 or more miles (16+ km)
Ceiling: at least 12,000 feet AGL
Clouds: sky clear below 12,000 feet AGL
Present Weather: automated observation with no human augmentation;
there may or may not be significant weather present at this time
KCTY 181215Z AUTO 36004KT 10SM CLR M06/M11 A3048 RMK AO2 T10611111

Conditions at: KCTY observed 18 January 2018  11:55 UTC
Temperature: -5.7°C (22°F)
Dewpoint: -11.1°C (12°F) [RH = 66%]
Pressure (altimeter): 30.48 inches Hg (1032.3 mb)
Winds: from the N (360 degrees) at 5 MPH (4 knots; 2.1 m/s)
Visibility: 10 or more miles (16+ km)
Ceiling: at least 12,000 feet AGL
Clouds: sky clear below 12,000 feet AGL
Present Weather: automated observation with no human augmentation;
there may or may not be significant weather present at this time
KCTY 181155Z AUTO 36004KT 10SM CLR M06/M11 A3048 RMK AO2 T10571111 11034 21059

Conditions at: KCTY observed 18 January 2018  11:35 UTC
Temperature: -5.5°C (22°F)
Dewpoint: -11.2°C (12°F) [RH = 64%]
Pressure (altimeter): 30.47 inches Hg (1031.9 mb)
Winds: from the NNW (340 degrees) at 6 MPH (5 knots; 2.6 m/s)
Visibility: 10 or more miles (16+ km)
Ceiling: at least 12,000 feet AGL
Clouds: sky clear below 12,000 feet AGL
Present Weather: automated observation with no human augmentation;
there may or may not be significant weather present at this time
KCTY 181135Z AUTO 34005KT 10SM CLR M06/M11 A3047 RMK AO2 T10551112

Conditions at: KCTY observed 18 January 2018  11:15 UTC
Temperature: -5.3°C (22°F)
Dewpoint: -11.2°C (12°F) [RH = 63%]
Pressure (altimeter): 30.47 inches Hg (1031.9 mb)
Winds: from the N (360 degrees) at 10 MPH (9 knots; 4.7 m/s)
Visibility: 10 or more miles (16+ km)
Ceiling: at least 12,000 feet AGL
Clouds: sky clear below 12,000 feet AGL
Present Weather: automated observation with no human augmentation;
there may or may not be significant weather present at this time
KCTY 181115Z AUTO 36009KT 10SM CLR M05/M11 A3047 RMK AO2 T10531112

Conditions at: KCTY observed 18 January 2018  10:55 UTC
Temperature: -5.2°C (23°F)
Dewpoint: -11.4°C (11°F) [RH = 62%]
Pressure (altimeter): 30.46 inches Hg (1031.6 mb)
Winds: from the N (350 degrees) at 6 MPH (5 knots; 2.6 m/s)
Visibility: 10 or more miles (16+ km)
Ceiling: at least 12,000 feet AGL
Clouds: sky clear below 12,000 feet AGL
Present Weather: automated observation with no human augmentation;
there may or may not be significant weather present at this time
KCTY 181055Z AUTO 35005KT 10SM CLR M05/M11 A3046 RMK AO2 T10521114

Conditions at: KCTY observed 18 January 2018  10:35 UTC
Temperature: -4.9°C (23°F)
Dewpoint: -11.4°C (11°F) [RH = 60%]
Pressure (altimeter): 30.46 inches Hg (1031.6 mb)
Winds: from the N (350 degrees) at 9 MPH (8 knots; 4.2 m/s)
Visibility: 10 or more miles (16+ km)
Ceiling: at least 12,000 feet AGL
Clouds: sky clear below 12,000 feet AGL
Present Weather: automated observation with no human augmentation;
there may or may not be significant weather present at this time
KCTY 181035Z AUTO 35008KT 10SM CLR M05/M11 A3046 RMK AO2 T10491114

Conditions at: KCTY observed 18 January 2018  10:15 UTC
Temperature: -4.8°C (23°F)
Dewpoint: -11.5°C (11°F) [RH = 59%]
Pressure (altimeter): 30.45 inches Hg (1031.2 mb)
Winds: from the N (360 degrees) at 10 MPH (9 knots; 4.7 m/s)
Visibility: 10 or more miles (16+ km)
Ceiling: at least 12,000 feet AGL
Clouds: sky clear below 12,000 feet AGL
Present Weather: automated observation with no human augmentation;
there may or may not be significant weather present at this time
KCTY 181015Z AUTO 36009KT 10SM CLR M05/M12 A3045 RMK AO2 T10481115

Conditions at: KCTY observed 18 January 2018  09:55 UTC
Temperature: -4.8°C (23°F)
Dewpoint: -11.7°C (11°F) [RH = 58%]
Pressure (altimeter): 30.45 inches Hg (1031.2 mb)
Winds: from the N (350 degrees) at 7 MPH (6 knots; 3.1 m/s)
Visibility: 10 or more miles (16+ km)
Ceiling: at least 12,000 feet AGL
Clouds: sky clear below 12,000 feet AGL
Present Weather: automated observation with no human augmentation;
there may or may not be significant weather present at this time
KCTY 180955Z AUTO 35006KT 10SM CLR M05/M12 A3045 RMK AO2 T10481117

Conditions at: KCTY observed 18 January 2018  09:35 UTC
Temperature: -4.6°C (24°F)
Dewpoint: -11.7°C (11°F) [RH = 58%]
Pressure (altimeter): 30.45 inches Hg (1031.2 mb)
Winds: from the N (350 degrees) at 10 MPH (9 knots; 4.7 m/s)
Visibility: 10 or more miles (16+ km)
Ceiling: at least 12,000 feet AGL
Clouds: sky clear below 12,000 feet AGL
Present Weather: automated observation with no human augmentation;
there may or may not be significant weather present at this time
KCTY 180935Z AUTO 35009KT 10SM CLR M05/M12 A3045 RMK AO2 T10461117

Conditions at: KCTY observed 18 January 2018  09:15 UTC
Temperature: -4.5°C (24°F)
Dewpoint: -11.8°C (11°F) [RH = 57%]
Pressure (altimeter): 30.46 inches Hg (1031.6 mb)
Winds: from the N (360 degrees) at 8 MPH (7 knots; 3.6 m/s)
Visibility: 10 or more miles (16+ km)
Ceiling: at least 12,000 feet AGL
Clouds: sky clear below 12,000 feet AGL
Present Weather: automated observation with no human augmentation;
there may or may not be significant weather present at this time
KCTY 180915Z AUTO 36007KT 10SM CLR M05/M12 A3046 RMK AO2 T10451118

Conditions at: KCTY observed 18 January 2018  08:55 UTC
Temperature: -4.4°C (24°F)
Dewpoint: -11.8°C (11°F) [RH = 56%]
Pressure (altimeter): 30.46 inches Hg (1031.6 mb)
Winds: from the N (350 degrees) at 8 MPH (7 knots; 3.6 m/s)
Visibility: 10 or more miles (16+ km)
Ceiling: at least 12,000 feet AGL
Clouds: sky clear below 12,000 feet AGL
Present Weather: automated observation with no human augmentation;
there may or may not be significant weather present at this time
KCTY 180855Z AUTO 35007KT 10SM CLR M04/M12 A3046 RMK AO2 T10441118

Conditions at: KCTY observed 18 January 2018  08:35 UTC
Temperature: -4.5°C (24°F)
Dewpoint: -11.9°C (11°F) [RH = 56%]
Pressure (altimeter): 30.46 inches Hg (1031.6 mb)
Winds: from the NNW (340 degrees) at 8 MPH (7 knots; 3.6 m/s)
Visibility: 10 or more miles (16+ km)
Ceiling: at least 12,000 feet AGL
Clouds: sky clear below 12,000 feet AGL
Present Weather: automated observation with no human augmentation;
there may or may not be significant weather present at this time
KCTY 180835Z AUTO 34007KT 10SM CLR M04/M12 A3046 RMK AO2 T10451119

Conditions at: KCTY observed 18 January 2018  08:15 UTC
Temperature: -4.3°C (24°F)
Dewpoint: -11.9°C (11°F) [RH = 55%]
Pressure (altimeter): 30.46 inches Hg (1031.6 mb)
Winds: from the N (350 degrees) at 8 MPH (7 knots; 3.6 m/s)
Visibility: 10 or more miles (16+ km)
Ceiling: at least 12,000 feet AGL
Clouds: sky clear below 12,000 feet AGL
Present Weather: automated observation with no human augmentation;
there may or may not be significant weather present at this time
KCTY 180815Z AUTO 35007KT 10SM CLR M04/M12 A3046 RMK AO2 T10431119

Conditions at: KCTY observed 18 January 2018  07:55 UTC
Temperature: -4.3°C (24°F)
Dewpoint: -12.0°C (10°F) [RH = 55%]
Pressure (altimeter): 30.46 inches Hg (1031.6 mb)
Winds: from the N (350 degrees) at 9 MPH (8 knots; 4.2 m/s)
Visibility: 10 or more miles (16+ km)
Ceiling: at least 12,000 feet AGL
Clouds: sky clear below 12,000 feet AGL
Present Weather: automated observation with no human augmentation;
there may or may not be significant weather present at this time
KCTY 180755Z AUTO 35008KT 10SM CLR M04/M12 A3046 RMK AO2 T10431120

Conditions at: KCTY observed 18 January 2018  07:35 UTC
Temperature: -4.0°C (25°F)
Dewpoint: -12.2°C (10°F) [RH = 53%]
Pressure (altimeter): 30.46 inches Hg (1031.6 mb)
Winds: from the NNW (340 degrees) at 9 MPH (8 knots; 4.2 m/s)
Visibility: 10 or more miles (16+ km)
Ceiling: at least 12,000 feet AGL
Clouds: sky clear below 12,000 feet AGL
Present Weather: automated observation with no human augmentation;
there may or may not be significant weather present at this time
KCTY 180735Z AUTO 34008KT 10SM CLR M04/M12 A3046 RMK AO2 T10401122

Conditions at: KCTY observed 18 January 2018  07:15 UTC
Temperature: -3.9°C (25°F)
Dewpoint: -12.2°C (10°F) [RH = 52%]
Pressure (altimeter): 30.46 inches Hg (1031.6 mb)
Winds: from the NNW (340 degrees) at 9 MPH (8 knots; 4.2 m/s)
Visibility: 10 or more miles (16+ km)
Ceiling: at least 12,000 feet AGL
Clouds: sky clear below 12,000 feet AGL
Present Weather: automated observation with no human augmentation;
there may or may not be significant weather present at this time
KCTY 180715Z AUTO 34008KT 10SM CLR M04/M12 A3046 RMK AO2 T10391122

Conditions at: KCTY observed 18 January 2018  06:55 UTC
Temperature: -3.7°C (25°F)
Dewpoint: -12.3°C (10°F) [RH = 51%]
Pressure (altimeter): 30.47 inches Hg (1031.9 mb)
Winds: from the NNW (340 degrees) at 10 MPH (9 knots; 4.7 m/s)
Visibility: 10 or more miles (16+ km)
Ceiling: at least 12,000 feet AGL
Clouds: sky clear below 12,000 feet AGL
Present Weather: automated observation with no human augmentation;
there may or may not be significant weather present at this time
KCTY 180655Z AUTO 34009KT 10SM CLR M04/M12 A3047 RMK AO2 T10371123

Conditions at: KCTY observed 18 January 2018  06:35 UTC
Temperature: -3.5°C (26°F)
Dewpoint: -12.2°C (10°F) [RH = 51%]
Pressure (altimeter): 30.47 inches Hg (1031.9 mb)
Winds: from the N (350 degrees) at 9 MPH (8 knots; 4.2 m/s)
Visibility: 10 or more miles (16+ km)
Ceiling: at least 12,000 feet AGL
Clouds: sky clear below 12,000 feet AGL
Present Weather: automated observation with no human augmentation;
there may or may not be significant weather present at this time
KCTY 180635Z AUTO 35008KT 10SM CLR M04/M12 A3047 RMK AO2 T10351122

Conditions at: KCTY observed 18 January 2018  06:15 UTC
Temperature: -3.6°C (26°F)
Dewpoint: -12.1°C (10°F) [RH = 52%]
Pressure (altimeter): 30.47 inches Hg (1031.9 mb)
Winds: from the N (350 degrees) at 10 MPH (9 knots; 4.7 m/s)
Visibility: 10 or more miles (16+ km)
Ceiling: at least 12,000 feet AGL
Clouds: sky clear below 12,000 feet AGL
Present Weather: automated observation with no human augmentation;
there may or may not be significant weather present at this time
KCTY 180615Z AUTO 35009KT 10SM CLR M04/M12 A3047 RMK AO2 T10361121

Conditions at: KCTY observed 18 January 2018  05:55 UTC
Temperature: -3.4°C (26°F)
Dewpoint: -12.1°C (10°F) [RH = 51%]
Pressure (altimeter): 30.47 inches Hg (1031.9 mb)
Winds: from the N (350 degrees) at 9 MPH (8 knots; 4.2 m/s)
Visibility: 10 or more miles (16+ km)
Ceiling: at least 12,000 feet AGL
Clouds: sky clear below 12,000 feet AGL
Present Weather: automated observation with no human augmentation;
there may or may not be significant weather present at this time
KCTY 180555Z AUTO 35008KT 10SM CLR M03/M12 A3047 RMK AO2 T10341121 10034 21035

Conditions at: KCTY observed 18 January 2018  05:35 UTC
Temperature: -3.3°C (26°F)
Dewpoint: -12.1°C (10°F) [RH = 51%]
Pressure (altimeter): 30.48 inches Hg (1032.3 mb)
Winds: from the N (350 degrees) at 10 MPH (9 knots; 4.7 m/s)
Visibility: 10 or more miles (16+ km)
Ceiling: at least 12,000 feet AGL
Clouds: sky clear below 12,000 feet AGL
Present Weather: automated observation with no human augmentation;
there may or may not be significant weather present at this time
KCTY 180535Z AUTO 35009KT 10SM CLR M03/M12 A3048 RMK AO2 T10331121

Conditions at: KCTY observed 18 January 2018  05:15 UTC
Temperature: -3.0°C (27°F)
Dewpoint: -12.0°C (10°F) [RH = 50%]
Pressure (altimeter): 30.48 inches Hg (1032.3 mb)
Winds: from the NNW (340 degrees) at 13 MPH (11 knots; 5.7 m/s)
Visibility: 10 or more miles (16+ km)
Ceiling: at least 12,000 feet AGL
Clouds: sky clear below 12,000 feet AGL
Present Weather: automated observation with no human augmentation;
there may or may not be significant weather present at this time
KCTY 180515Z AUTO 34011KT 10SM CLR M03/M12 A3048 RMK AO2 T10301120

Conditions at: KCTY observed 18 January 2018  04:55 UTC
Temperature: -3.0°C (27°F)
Dewpoint: -11.6°C (11°F) [RH = 51%]
Pressure (altimeter): 30.48 inches Hg (1032.3 mb)
Winds: from the NNW (340 degrees) at 9 MPH (8 knots; 4.2 m/s)
Visibility: 10 or more miles (16+ km)
Ceiling: at least 12,000 feet AGL
Clouds: sky clear below 12,000 feet AGL
Present Weather: automated observation with no human augmentation;
there may or may not be significant weather present at this time
KCTY 180455Z AUTO 34008KT 10SM CLR M03/M12 A3048 RMK AO2 T10301116

Conditions at: KCTY observed 18 January 2018  04:35 UTC
Temperature: -2.7°C (27°F)
Dewpoint: -11.5°C (11°F) [RH = 51%]
Pressure (altimeter): 30.48 inches Hg (1032.3 mb)
Winds: from the NNW (340 degrees) at 8 MPH (7 knots; 3.6 m/s)
Visibility: 10 or more miles (16+ km)
Ceiling: at least 12,000 feet AGL
Clouds: sky clear below 12,000 feet AGL
Present Weather: automated observation with no human augmentation;
there may or may not be significant weather present at this time
KCTY 180435Z AUTO 34007KT 10SM CLR M03/M12 A3048 RMK AO2 T10271115

Conditions at: KCTY observed 18 January 2018  04:15 UTC
Temperature: -2.4°C (28°F)
Dewpoint: -11.3°C (12°F) [RH = 50%]
Pressure (altimeter): 30.48 inches Hg (1032.3 mb)
Winds: from the NNW (330 degrees) at 8 MPH (7 knots; 3.6 m/s)
Visibility: 10 or more miles (16+ km)
Ceiling: at least 12,000 feet AGL
Clouds: sky clear below 12,000 feet AGL
Present Weather: automated observation with no human augmentation;
there may or may not be significant weather present at this time
KCTY 180415Z AUTO 33007KT 10SM CLR M02/M11 A3048 RMK AO2 T10241113

Conditions at: KCTY observed 18 January 2018  03:55 UTC
Temperature: -2.3°C (28°F)
Dewpoint: -10.9°C (12°F) [RH = 52%]
Pressure (altimeter): 30.48 inches Hg (1032.3 mb)
Winds: from the NNW (330 degrees) at 8 MPH (7 knots; 3.6 m/s)
Visibility: 10 or more miles (16+ km)
Ceiling: at least 12,000 feet AGL
Clouds: sky clear below 12,000 feet AGL
Present Weather: automated observation with no human augmentation;
there may or may not be significant weather present at this time
KCTY 180355Z AUTO 33007KT 10SM CLR M02/M11 A3048 RMK AO2 T10231109

Conditions at: KCTY observed 18 January 2018  03:35 UTC
Temperature: -1.7°C (29°F)
Dewpoint: -11.6°C (11°F) [RH = 47%]
Pressure (altimeter): 30.47 inches Hg (1031.9 mb)
Winds: from the NNW (330 degrees) at 8 MPH (7 knots; 3.6 m/s)
Visibility: 10 or more miles (16+ km)
Ceiling: at least 12,000 feet AGL
Clouds: sky clear below 12,000 feet AGL
Present Weather: automated observation with no human augmentation;
there may or may not be significant weather present at this time
KCTY 180335Z AUTO 33007KT 10SM CLR M02/M12 A3047 RMK AO2 T10171116